CYDP/YDP METAR and TAF weather

Enter ICAO airport designator
Station Type Date Time Source
CYDP METAR 2021/03/09 10:00 UTC NOAA

CYDP 091000Z 29004KT 15SM FEW200 M15/M20 A2985 RMK CI2 SLP112


Station Type Date Time Source
CYDP Decoded METAR 2021/03/09 10:00 UTC NOAA

Nain, Nfld, Canada (CYDP) 56-33N 061-41W 7M
Mar 09, 2021 - 05:00 AM EST / 2021.03.09 1000 UTC
Wind: from the WNW (290 degrees) at 5 MPH (4 KT):0
Visibility: 15 mile(s):0
Sky conditions: mostly clear
Temperature: 5 F (-15 C)
Windchill: -4 F (-20 C):1
Dew Point: -4 F (-20 C)
Relative Humidity: 65%
Pressure (altimeter): 29.85 in. Hg (1010 hPa)
ob: CYDP 091000Z 29004KT 15SM FEW200 M15/M20 A2985 RMK CI2 SLP112
cycle: 10

Station Type Date Time Source
CYDP TAF 2021/03/08 20:00 UTC NOAA

TAF CYDP 081938Z 0820/0824 23008KT P6SM SKC
RMK NXT FCST WILL BE ISSUED AT 091045Z

Example: see airport list